Mitta Mitta, Victoria

1:40 AM EST on August 24, 2014 (GMT +1000)
Upper Kiewa Valley | Change Station
CLOSE
Current Station
Personal Weather Station
Location: Tawonga South, VIC
Elevation: 1299 ft
Nearby Weather Stations

Elev 1299 ft 36.73 °S, 147.15 °E | Updated 9 minutes ago

Clear
Clear
41.9 °F
Feels Like 42 °F
N
0.0
Wind Variable Wind from West
Gusts 1.6 mph

Today
High -- | Low -- °F
--% Chance of Precip.
Yesterday
High -- | Low -- °F
Precip. -- in
6:42 AM 5:43 PM
Waning Crescent, 3% visible
Pressure 30.33 in
Visibility 3.7 miles
Clouds
Windchill 42 °F
Dew Point 38 °F
Humidity 86%
Rainfall 0.00 in
Snow Depth Not available.
UV Not available.
Pollen Not available.
Air Quality Not available.
Flu Activity Not available.
SPECI YMAY 231522Z AUTO 00000KT 6000 // NCD 06/05 Q1027

More Conditions Fewer Conditions

Pressure 30.33 in
Visibility 3.7 miles
Clouds
Windchill 42 °F
Dew Point 38 °F
Humidity 86%
Rainfall 0.00 in
Snow Depth Not available.
UV Not available.
Pollen Not available.
Air Quality Not available.
Flu Activity Not available.
SPECI YMAY 231522Z AUTO 00000KT 6000 // NCD 06/05 Q1027

More Conditions Fewer Conditions

10-Day Weather Forecast

Almanac

Astronomy

Aug. 24, 2014 Rise Set
Actual Time 6:42 AM EST 5:43 PM EST
Civil Twilight 6:16 AM EST 6:10 PM EST
Nautical Twilight 5:46 AM EST 6:40 PM EST
Astronomical Twilight 5:16 AM EST 7:10 PM EST
Moon 5:30 AM EST (8/24) 4:36 PM EST (8/24)
Length of Visible Light 11h 53m
Length of Day
11h 01m
Tomorrow will be 2m 8s longer.
Waning Crescent, 3% of the Moon is Illuminated
Aug 23
Waning Crescent
Aug 25
New
Sep 2
First Quarter
Sep 8
Full
Sep 15
Last Quarter

Yesterday's Extremes

Country Highs Country Lows

Community

WunderPhotos

Upload Photos

1,746,502 photos uploaded!

WunderBlogs® & News

By Dr. Jeff Masters
Director of Meteorology, Weather Underground
By Kari Strenfel
Meteorologist, Weather Underground
By Christopher C. Burt
Weather Historian, Weather Underground
August 23, 2014
August 23, 2014
August 23, 2014

Nearby

Snow Depth

Not available.

Earthquake Activity

City Distance Mag. Time & Date
No recent earthquake activity has been reported nearby.
Minimum magnitude displayed is 2.5.

Coastal Water Temperatures

Place Temperature
No Stations Reporting

Nearby Weather Stations